Terminal Aerodrome Forecast
Issued by NWS

Home | Current Version | Previous Version | Text Only | Print | Product List | Glossary Off
Versions: 1 2 3 4 5 6 7 8 9 10 11 12 13 14 15 16

000
FTUS45 KRIW 291100
TAFBPI
TAF
KBPI 291139Z 2912/3012 VRB04KT P6SM FEW020
      TEMPO 2915/2919 BKN020
     FM300200 35006KT P6SM SCT110 BKN200=

USA.gov is the U.S. government's official web portal to all federal, state and local government web resources and services.